Onalaska, WI

6:44 PM CST on February 06, 2016 (GMT -0600)
APRSWXNET | | Change Station
CLOSE
Current Station
Personal Weather Station
Location: Onalaska, WI
Elevation: 682 ft
Nearby Weather Stations

Elev 682 ft 43.88 °N, 91.23 °W | Updated 34 minutes ago

Clear
Clear
30 °F
Feels Like 22 °F
N
8
Wind Variable Wind from South
Gusts 16.0 mph

Today
High -- | Low -- °F
--% Chance of Precip.
Yesterday
High -- | Low -- °F
Precip. -- in
Pressure 30.06 in
Visibility 10.0 miles
Clouds Clear
Windchill 22 °F
Dew Point 24 °F
Humidity 77%
Rainfall in
Snow Depth Not available.
7:16 AM 5:21 PM
Waning Crescent, 3% visible
METAR KLSE 062353Z 17011KT 10SM CLR M01/M04 A3002 RMK AO2 SLP180 T10111044 10006 21011 58023
Pressure 30.06 in
Visibility 10.0 miles
Clouds Clear
Windchill 22 °F
Dew Point 24 °F
Humidity 77%
Rainfall in
Snow Depth Not available.
7:16 AM 5:21 PM
Waning Crescent, 3% visible
METAR KLSE 062353Z 17011KT 10SM CLR M01/M04 A3002 RMK AO2 SLP180 T10111044 10006 21011 58023

10-Day Weather Forecast

Almanac

Astronomy

Feb. 06, 2016 Rise Set
Actual Time
Civil Twilight
Nautical Twilight
Astronomical Twilight
Moon
Length of Visible Light
Length of Day
Tomorrow will be .
, % of the Moon is Illuminated

Today's Extremes

State Highs State Lows

Community

WunderPhotos

Upload Photos

1,891,110 photos uploaded!

WunderBlog® & News

Nearby

Air Quality

  Air Quality AQ Index Pollutant
Not available.

Snow Depth

Station Depth Elevation

Earthquake Activity

City Distance Mag. Time & Date
Minimum magnitude displayed is 2.5.

Coastal Water Temperatures

Place Temperature

Stations

Nearby Weather Stations

Station Location Temp. Windchill Dew Point Humidity Wind Precip. Elev Updated Type
                   

Watches & Warnings

There are currently no watches in effect.